sensor_id;sensor_type;location;lat;lon;timestamp;P1;durP1;ratioP1;P2;durP2;ratioP2
74487;SDS011;63019;51.080;13.642;2022-11-12T00:00:52;14.23;;;6.00;;
74487;SDS011;63019;51.080;13.642;2022-11-12T00:01:55;14.13;;;6.10;;
74487;SDS011;63019;51.080;13.642;2022-11-12T00:02:57;13.35;;;5.72;;
74487;SDS011;63019;51.080;13.642;2022-11-12T00:03:59;13.77;;;5.95;;
74487;SDS011;63019;51.080;13.642;2022-11-12T00:05:00;12.52;;;5.80;;
74487;SDS011;63019;51.080;13.642;2022-11-12T00:06:02;13.05;;;5.45;;
74487;SDS011;63019;51.080;13.642;2022-11-12T00:07:04;11.27;;;5.78;;
74487;SDS011;63019;51.080;13.642;2022-11-12T00:08:06;13.50;;;5.80;;
74487;SDS011;63019;51.080;13.642;2022-11-12T00:09:08;15.68;;;6.03;;
74487;SDS011;63019;51.080;13.642;2022-11-12T00:10:09;13.65;;;5.90;;
74487;SDS011;63019;51.080;13.642;2022-11-12T00:11:11;16.07;;;5.70;;
74487;SDS011;63019;51.080;13.642;2022-11-12T00:12:13;12.97;;;5.73;;
74487;SDS011;63019;51.080;13.642;2022-11-12T00:13:15;18.00;;;6.22;;
74487;SDS011;63019;51.080;13.642;2022-11-12T00:14:17;12.05;;;5.10;;
74487;SDS011;63019;51.080;13.642;2022-11-12T00:15:18;14.38;;;5.50;;
74487;SDS011;63019;51.080;13.642;2022-11-12T00:16:20;15.13;;;5.90;;
74487;SDS011;63019;51.080;13.642;2022-11-12T00:17:22;12.32;;;5.78;;
74487;SDS011;63019;51.080;13.642;2022-11-12T00:18:24;11.20;;;5.70;;
74487;SDS011;63019;51.080;13.642;2022-11-12T00:19:26;17.70;;;5.93;;
74487;SDS011;63019;51.080;13.642;2022-11-12T00:20:28;16.38;;;6.60;;
74487;SDS011;63019;51.080;13.642;2022-11-12T00:21:29;13.63;;;6.10;;
74487;SDS011;63019;51.080;13.642;2022-11-12T00:22:31;17.50;;;6.03;;
74487;SDS011;63019;51.080;13.642;2022-11-12T00:23:34;15.10;;;5.78;;
74487;SDS011;63019;51.080;13.642;2022-11-12T00:24:35;14.88;;;6.20;;
74487;SDS011;63019;51.080;13.642;2022-11-12T00:25:37;11.38;;;5.70;;
74487;SDS011;63019;51.080;13.642;2022-11-12T00:26:39;11.65;;;5.95;;
74487;SDS011;63019;51.080;13.642;2022-11-12T00:27:41;18.13;;;6.15;;
74487;SDS011;63019;51.080;13.642;2022-11-12T00:28:43;14.88;;;6.00;;
74487;SDS011;63019;51.080;13.642;2022-11-12T00:29:45;11.75;;;5.75;;
74487;SDS011;63019;51.080;13.642;2022-11-12T00:30:46;13.27;;;5.53;;
74487;SDS011;63019;51.080;13.642;2022-11-12T00:31:48;14.00;;;5.70;;
74487;SDS011;63019;51.080;13.642;2022-11-12T00:32:50;12.80;;;6.40;;
74487;SDS011;63019;51.080;13.642;2022-11-12T00:33:52;16.13;;;6.35;;
74487;SDS011;63019;51.080;13.642;2022-11-12T00:34:55;14.10;;;6.05;;
74487;SDS011;63019;51.080;13.642;2022-11-12T00:36:01;15.00;;;5.68;;
74487;SDS011;63019;51.080;13.642;2022-11-12T00:37:03;13.30;;;5.82;;
74487;SDS011;63019;51.080;13.642;2022-11-12T00:38:05;11.85;;;5.65;;
74487;SDS011;63019;51.080;13.642;2022-11-12T00:39:07;13.93;;;6.05;;
74487;SDS011;63019;51.080;13.642;2022-11-12T00:40:09;12.38;;;6.00;;
74487;SDS011;63019;51.080;13.642;2022-11-12T00:41:11;12.52;;;5.75;;
74487;SDS011;63019;51.080;13.642;2022-11-12T00:42:12;17.23;;;6.20;;
74487;SDS011;63019;51.080;13.642;2022-11-12T00:43:14;13.17;;;6.10;;
74487;SDS011;63019;51.080;13.642;2022-11-12T00:44:16;13.57;;;6.20;;
74487;SDS011;63019;51.080;13.642;2022-11-12T00:45:18;15.93;;;7.53;;
74487;SDS011;63019;51.080;13.642;2022-11-12T00:46:20;24.80;;;9.60;;
74487;SDS011;63019;51.080;13.642;2022-11-12T00:47:22;20.27;;;10.38;;
74487;SDS011;63019;51.080;13.642;2022-11-12T00:48:24;20.45;;;8.90;;
74487;SDS011;63019;51.080;13.642;2022-11-12T00:49:26;19.55;;;7.50;;
74487;SDS011;63019;51.080;13.642;2022-11-12T00:50:28;13.23;;;7.00;;
74487;SDS011;63019;51.080;13.642;2022-11-12T00:51:30;17.80;;;6.68;;
74487;SDS011;63019;51.080;13.642;2022-11-12T00:52:31;13.60;;;6.37;;
74487;SDS011;63019;51.080;13.642;2022-11-12T00:53:33;18.20;;;6.50;;
74487;SDS011;63019;51.080;13.642;2022-11-12T00:54:35;13.00;;;6.38;;
74487;SDS011;63019;51.080;13.642;2022-11-12T00:55:37;15.48;;;6.30;;
74487;SDS011;63019;51.080;13.642;2022-11-12T00:56:38;17.50;;;6.47;;
74487;SDS011;63019;51.080;13.642;2022-11-12T00:57:40;15.18;;;5.97;;
74487;SDS011;63019;51.080;13.642;2022-11-12T00:58:42;13.57;;;6.22;;
74487;SDS011;63019;51.080;13.642;2022-11-12T00:59:43;13.02;;;6.10;;
74487;SDS011;63019;51.080;13.642;2022-11-12T01:00:45;13.00;;;6.20;;
74487;SDS011;63019;51.080;13.642;2022-11-12T01:01:47;11.95;;;5.88;;
74487;SDS011;63019;51.080;13.642;2022-11-12T01:02:49;16.20;;;5.43;;
74487;SDS011;63019;51.080;13.642;2022-11-12T01:03:51;16.70;;;5.93;;
74487;SDS011;63019;51.080;13.642;2022-11-12T01:04:54;12.65;;;5.88;;
74487;SDS011;63019;51.080;13.642;2022-11-12T01:06:00;13.43;;;5.97;;
74487;SDS011;63019;51.080;13.642;2022-11-12T01:07:06;13.90;;;6.15;;
74487;SDS011;63019;51.080;13.642;2022-11-12T01:08:07;13.35;;;5.55;;
74487;SDS011;63019;51.080;13.642;2022-11-12T01:09:09;10.50;;;5.40;;
74487;SDS011;63019;51.080;13.642;2022-11-12T01:10:11;13.43;;;6.07;;
74487;SDS011;63019;51.080;13.642;2022-11-12T01:11:14;14.18;;;5.80;;
74487;SDS011;63019;51.080;13.642;2022-11-12T01:12:21;13.35;;;6.10;;
74487;SDS011;63019;51.080;13.642;2022-11-12T01:13:22;14.43;;;5.97;;
74487;SDS011;63019;51.080;13.642;2022-11-12T01:14:24;15.10;;;6.30;;
74487;SDS011;63019;51.080;13.642;2022-11-12T01:15:26;10.35;;;5.45;;
74487;SDS011;63019;51.080;13.642;2022-11-12T01:16:29;11.23;;;5.90;;
74487;SDS011;63019;51.080;13.642;2022-11-12T01:17:34;12.55;;;6.03;;
74487;SDS011;63019;51.080;13.642;2022-11-12T01:18:36;12.75;;;5.60;;
74487;SDS011;63019;51.080;13.642;2022-11-12T01:19:38;14.98;;;5.88;;
74487;SDS011;63019;51.080;13.642;2022-11-12T01:20:39;12.15;;;5.55;;
74487;SDS011;63019;51.080;13.642;2022-11-12T01:21:42;15.20;;;6.90;;
74487;SDS011;63019;51.080;13.642;2022-11-12T01:22:44;13.73;;;6.68;;
74487;SDS011;63019;51.080;13.642;2022-11-12T01:23:46;15.50;;;6.70;;
74487;SDS011;63019;51.080;13.642;2022-11-12T01:24:48;13.07;;;6.23;;
74487;SDS011;63019;51.080;13.642;2022-11-12T01:25:49;15.75;;;5.93;;
74487;SDS011;63019;51.080;13.642;2022-11-12T01:26:51;15.05;;;6.13;;
74487;SDS011;63019;51.080;13.642;2022-11-12T01:27:53;14.40;;;6.30;;
74487;SDS011;63019;51.080;13.642;2022-11-12T01:28:55;14.00;;;6.28;;
74487;SDS011;63019;51.080;13.642;2022-11-12T01:29:57;14.38;;;6.40;;
74487;SDS011;63019;51.080;13.642;2022-11-12T01:32:35;12.82;;;5.75;;
74487;SDS011;63019;51.080;13.642;2022-11-12T01:33:38;15.45;;;6.72;;
74487;SDS011;63019;51.080;13.642;2022-11-12T01:34:40;10.90;;;5.53;;
74487;SDS011;63019;51.080;13.642;2022-11-12T01:35:42;15.10;;;6.73;;
74487;SDS011;63019;51.080;13.642;2022-11-12T01:36:43;15.68;;;6.35;;
74487;SDS011;63019;51.080;13.642;2022-11-12T01:37:45;13.70;;;5.82;;
74487;SDS011;63019;51.080;13.642;2022-11-12T01:38:47;17.55;;;6.97;;
74487;SDS011;63019;51.080;13.642;2022-11-12T01:39:49;13.75;;;5.82;;
74487;SDS011;63019;51.080;13.642;2022-11-12T01:40:51;14.20;;;6.47;;
74487;SDS011;63019;51.080;13.642;2022-11-12T01:41:53;14.05;;;6.10;;
74487;SDS011;63019;51.080;13.642;2022-11-12T01:42:55;16.30;;;6.35;;
74487;SDS011;63019;51.080;13.642;2022-11-12T01:45:21;12.90;;;5.90;;
74487;SDS011;63019;51.080;13.642;2022-11-12T01:46:27;14.70;;;5.95;;
74487;SDS011;63019;51.080;13.642;2022-11-12T01:47:31;12.18;;;5.80;;
74487;SDS011;63019;51.080;13.642;2022-11-12T01:48:38;18.65;;;6.35;;
74487;SDS011;63019;51.080;13.642;2022-11-12T01:50:22;11.90;;;5.43;;
74487;SDS011;63019;51.080;13.642;2022-11-12T01:51:20;16.27;;;6.00;;
74487;SDS011;63019;51.080;13.642;2022-11-12T01:52:26;12.57;;;5.80;;
74487;SDS011;63019;51.080;13.642;2022-11-12T01:53:38;11.98;;;4.97;;
74487;SDS011;63019;51.080;13.642;2022-11-12T01:54:46;14.88;;;5.75;;
74487;SDS011;63019;51.080;13.642;2022-11-12T01:55:52;13.98;;;5.50;;
74487;SDS011;63019;51.080;13.642;2022-11-12T01:56:55;12.53;;;5.37;;
74487;SDS011;63019;51.080;13.642;2022-11-12T01:59:19;13.77;;;5.47;;
74487;SDS011;63019;51.080;13.642;2022-11-12T02:00:25;12.90;;;5.63;;
74487;SDS011;63019;51.080;13.642;2022-11-12T02:01:27;10.23;;;5.20;;
74487;SDS011;63019;51.080;13.642;2022-11-12T02:02:29;12.23;;;5.30;;
74487;SDS011;63019;51.080;13.642;2022-11-12T02:03:31;11.30;;;5.10;;
74487;SDS011;63019;51.080;13.642;2022-11-12T02:04:33;12.63;;;5.10;;
74487;SDS011;63019;51.080;13.642;2022-11-12T02:05:36;13.77;;;5.57;;
74487;SDS011;63019;51.080;13.642;2022-11-12T02:06:39;11.98;;;5.20;;
74487;SDS011;63019;51.080;13.642;2022-11-12T02:07:43;10.90;;;4.57;;
74487;SDS011;63019;51.080;13.642;2022-11-12T02:08:47;12.67;;;4.77;;
74487;SDS011;63019;51.080;13.642;2022-11-12T02:09:51;13.52;;;5.20;;
74487;SDS011;63019;51.080;13.642;2022-11-12T02:10:54;15.27;;;5.78;;
74487;SDS011;63019;51.080;13.642;2022-11-12T02:11:55;10.25;;;5.30;;
74487;SDS011;63019;51.080;13.642;2022-11-12T02:12:59;12.05;;;4.72;;
74487;SDS011;63019;51.080;13.642;2022-11-12T02:14:20;11.32;;;4.97;;
74487;SDS011;63019;51.080;13.642;2022-11-12T02:15:22;9.10;;;4.75;;
74487;SDS011;63019;51.080;13.642;2022-11-12T02:16:25;9.18;;;4.40;;
74487;SDS011;63019;51.080;13.642;2022-11-12T02:17:33;12.40;;;4.88;;
74487;SDS011;63019;51.080;13.642;2022-11-12T02:18:35;8.73;;;3.80;;
74487;SDS011;63019;51.080;13.642;2022-11-12T02:19:37;8.53;;;4.30;;
74487;SDS011;63019;51.080;13.642;2022-11-12T02:20:38;11.18;;;4.53;;
74487;SDS011;63019;51.080;13.642;2022-11-12T02:21:40;10.77;;;4.32;;
74487;SDS011;63019;51.080;13.642;2022-11-12T02:22:42;10.73;;;4.53;;
74487;SDS011;63019;51.080;13.642;2022-11-12T02:23:44;8.73;;;4.20;;
74487;SDS011;63019;51.080;13.642;2022-11-12T02:24:46;11.25;;;4.30;;
74487;SDS011;63019;51.080;13.642;2022-11-12T02:25:48;9.27;;;4.60;;
74487;SDS011;63019;51.080;13.642;2022-11-12T02:26:50;9.52;;;4.80;;
74487;SDS011;63019;51.080;13.642;2022-11-12T02:27:55;12.48;;;5.07;;
74487;SDS011;63019;51.080;13.642;2022-11-12T02:28:58;10.57;;;4.57;;
74487;SDS011;63019;51.080;13.642;2022-11-12T02:30:00;9.63;;;4.45;;
74487;SDS011;63019;51.080;13.642;2022-11-12T02:31:02;12.05;;;4.78;;
74487;SDS011;63019;51.080;13.642;2022-11-12T02:32:03;12.55;;;4.22;;
74487;SDS011;63019;51.080;13.642;2022-11-12T02:33:05;8.68;;;4.35;;
74487;SDS011;63019;51.080;13.642;2022-11-12T02:34:07;7.70;;;4.20;;
74487;SDS011;63019;51.080;13.642;2022-11-12T02:35:09;9.27;;;4.43;;
74487;SDS011;63019;51.080;13.642;2022-11-12T02:36:10;9.85;;;4.38;;
74487;SDS011;63019;51.080;13.642;2022-11-12T02:37:12;9.30;;;4.40;;
74487;SDS011;63019;51.080;13.642;2022-11-12T02:38:14;7.65;;;3.97;;
74487;SDS011;63019;51.080;13.642;2022-11-12T02:39:16;8.67;;;4.17;;
74487;SDS011;63019;51.080;13.642;2022-11-12T02:40:18;9.13;;;4.30;;
74487;SDS011;63019;51.080;13.642;2022-11-12T02:41:19;9.70;;;4.60;;
74487;SDS011;63019;51.080;13.642;2022-11-12T02:42:21;9.60;;;4.60;;
74487;SDS011;63019;51.080;13.642;2022-11-12T02:43:23;13.13;;;4.20;;
74487;SDS011;63019;51.080;13.642;2022-11-12T02:44:25;8.32;;;4.22;;
74487;SDS011;63019;51.080;13.642;2022-11-12T02:45:27;10.73;;;4.72;;
74487;SDS011;63019;51.080;13.642;2022-11-12T02:46:30;8.70;;;4.40;;
74487;SDS011;63019;51.080;13.642;2022-11-12T02:47:32;9.50;;;4.75;;
74487;SDS011;63019;51.080;13.642;2022-11-12T02:48:34;12.73;;;4.75;;
74487;SDS011;63019;51.080;13.642;2022-11-12T02:49:36;8.57;;;4.23;;
74487;SDS011;63019;51.080;13.642;2022-11-12T02:50:37;8.40;;;4.37;;
74487;SDS011;63019;51.080;13.642;2022-11-12T02:51:39;11.02;;;4.45;;
74487;SDS011;63019;51.080;13.642;2022-11-12T02:52:41;8.85;;;4.30;;
74487;SDS011;63019;51.080;13.642;2022-11-12T02:53:43;10.43;;;5.30;;
74487;SDS011;63019;51.080;13.642;2022-11-12T02:54:44;11.05;;;4.55;;
74487;SDS011;63019;51.080;13.642;2022-11-12T02:55:46;17.23;;;5.18;;
74487;SDS011;63019;51.080;13.642;2022-11-12T02:56:48;9.88;;;4.80;;
74487;SDS011;63019;51.080;13.642;2022-11-12T02:57:50;9.38;;;4.32;;
74487;SDS011;63019;51.080;13.642;2022-11-12T02:58:51;11.38;;;4.82;;
74487;SDS011;63019;51.080;13.642;2022-11-12T02:59:53;10.83;;;4.70;;
74487;SDS011;63019;51.080;13.642;2022-11-12T03:00:55;10.10;;;4.70;;
74487;SDS011;63019;51.080;13.642;2022-11-12T03:01:57;9.75;;;4.28;;
74487;SDS011;63019;51.080;13.642;2022-11-12T03:02:59;9.85;;;4.00;;
74487;SDS011;63019;51.080;13.642;2022-11-12T03:04:01;10.07;;;4.07;;
74487;SDS011;63019;51.080;13.642;2022-11-12T03:05:03;10.93;;;4.53;;
74487;SDS011;63019;51.080;13.642;2022-11-12T03:06:05;8.27;;;3.85;;
74487;SDS011;63019;51.080;13.642;2022-11-12T03:07:07;7.72;;;4.15;;
74487;SDS011;63019;51.080;13.642;2022-11-12T03:08:09;8.60;;;4.32;;
74487;SDS011;63019;51.080;13.642;2022-11-12T03:09:11;8.02;;;3.95;;
74487;SDS011;63019;51.080;13.642;2022-11-12T03:10:13;8.83;;;3.77;;
74487;SDS011;63019;51.080;13.642;2022-11-12T03:11:15;10.43;;;3.93;;
74487;SDS011;63019;51.080;13.642;2022-11-12T03:12:17;7.55;;;3.90;;
74487;SDS011;63019;51.080;13.642;2022-11-12T03:13:19;9.57;;;5.30;;
74487;SDS011;63019;51.080;13.642;2022-11-12T03:14:21;10.88;;;4.20;;
74487;SDS011;63019;51.080;13.642;2022-11-12T03:15:23;10.82;;;4.30;;
74487;SDS011;63019;51.080;13.642;2022-11-12T03:16:25;8.55;;;4.00;;
74487;SDS011;63019;51.080;13.642;2022-11-12T03:17:27;7.80;;;3.70;;
74487;SDS011;63019;51.080;13.642;2022-11-12T03:18:29;8.90;;;3.60;;
74487;SDS011;63019;51.080;13.642;2022-11-12T03:19:31;12.52;;;4.32;;
74487;SDS011;63019;51.080;13.642;2022-11-12T03:20:33;10.90;;;4.13;;
74487;SDS011;63019;51.080;13.642;2022-11-12T03:21:35;9.75;;;4.05;;
74487;SDS011;63019;51.080;13.642;2022-11-12T03:22:37;11.35;;;4.18;;
74487;SDS011;63019;51.080;13.642;2022-11-12T03:23:39;9.10;;;3.83;;
74487;SDS011;63019;51.080;13.642;2022-11-12T03:24:41;8.13;;;3.67;;
74487;SDS011;63019;51.080;13.642;2022-11-12T03:25:42;10.23;;;3.42;;
74487;SDS011;63019;51.080;13.642;2022-11-12T03:26:44;7.57;;;3.72;;
74487;SDS011;63019;51.080;13.642;2022-11-12T03:27:46;8.25;;;3.80;;
74487;SDS011;63019;51.080;13.642;2022-11-12T03:28:49;7.82;;;4.00;;
74487;SDS011;63019;51.080;13.642;2022-11-12T03:29:51;7.88;;;4.00;;
74487;SDS011;63019;51.080;13.642;2022-11-12T03:30:55;7.47;;;3.67;;
74487;SDS011;63019;51.080;13.642;2022-11-12T03:31:59;7.70;;;3.92;;
74487;SDS011;63019;51.080;13.642;2022-11-12T03:33:00;10.07;;;3.80;;
74487;SDS011;63019;51.080;13.642;2022-11-12T03:34:02;8.77;;;3.60;;
74487;SDS011;63019;51.080;13.642;2022-11-12T03:35:04;8.48;;;3.85;;
74487;SDS011;63019;51.080;13.642;2022-11-12T03:36:06;10.15;;;4.38;;
74487;SDS011;63019;51.080;13.642;2022-11-12T03:37:08;9.40;;;3.70;;
74487;SDS011;63019;51.080;13.642;2022-11-12T03:38:10;12.48;;;3.83;;
74487;SDS011;63019;51.080;13.642;2022-11-12T03:39:12;9.27;;;3.92;;
74487;SDS011;63019;51.080;13.642;2022-11-12T03:40:14;6.53;;;3.70;;
74487;SDS011;63019;51.080;13.642;2022-11-12T03:41:16;8.97;;;3.43;;
74487;SDS011;63019;51.080;13.642;2022-11-12T03:42:18;8.87;;;4.00;;
74487;SDS011;63019;51.080;13.642;2022-11-12T03:43:20;10.57;;;3.55;;
74487;SDS011;63019;51.080;13.642;2022-11-12T03:44:22;8.85;;;3.55;;
74487;SDS011;63019;51.080;13.642;2022-11-12T03:45:24;14.82;;;3.78;;
74487;SDS011;63019;51.080;13.642;2022-11-12T03:46:27;8.90;;;3.90;;
74487;SDS011;63019;51.080;13.642;2022-11-12T03:47:29;8.07;;;3.63;;
74487;SDS011;63019;51.080;13.642;2022-11-12T03:48:31;8.20;;;3.63;;
74487;SDS011;63019;51.080;13.642;2022-11-12T03:49:33;8.02;;;3.80;;
74487;SDS011;63019;51.080;13.642;2022-11-12T03:50:35;9.68;;;4.30;;
74487;SDS011;63019;51.080;13.642;2022-11-12T03:51:36;10.17;;;3.97;;
74487;SDS011;63019;51.080;13.642;2022-11-12T03:52:38;10.43;;;4.03;;
74487;SDS011;63019;51.080;13.642;2022-11-12T03:53:44;7.35;;;4.00;;
74487;SDS011;63019;51.080;13.642;2022-11-12T03:54:46;7.03;;;4.00;;
74487;SDS011;63019;51.080;13.642;2022-11-12T03:55:48;7.40;;;3.80;;
74487;SDS011;63019;51.080;13.642;2022-11-12T03:56:49;14.45;;;4.30;;
74487;SDS011;63019;51.080;13.642;2022-11-12T03:57:52;8.80;;;4.43;;
74487;SDS011;63019;51.080;13.642;2022-11-12T03:58:54;8.68;;;4.30;;
74487;SDS011;63019;51.080;13.642;2022-11-12T03:59:56;7.22;;;3.97;;
74487;SDS011;63019;51.080;13.642;2022-11-12T04:00:58;8.90;;;4.50;;
74487;SDS011;63019;51.080;13.642;2022-11-12T04:01:59;10.77;;;4.90;;
74487;SDS011;63019;51.080;13.642;2022-11-12T04:03:01;11.13;;;4.93;;
74487;SDS011;63019;51.080;13.642;2022-11-12T04:04:03;11.23;;;4.50;;
74487;SDS011;63019;51.080;13.642;2022-11-12T04:05:05;11.38;;;5.30;;
74487;SDS011;63019;51.080;13.642;2022-11-12T04:06:27;11.68;;;4.63;;
74487;SDS011;63019;51.080;13.642;2022-11-12T04:07:48;10.57;;;5.05;;
74487;SDS011;63019;51.080;13.642;2022-11-12T04:09:09;9.10;;;4.60;;
74487;SDS011;63019;51.080;13.642;2022-11-12T04:10:10;12.30;;;5.20;;
74487;SDS011;63019;51.080;13.642;2022-11-12T04:11:13;14.45;;;5.20;;
74487;SDS011;63019;51.080;13.642;2022-11-12T04:12:16;11.15;;;4.90;;
74487;SDS011;63019;51.080;13.642;2022-11-12T04:13:36;12.00;;;5.17;;
74487;SDS011;63019;51.080;13.642;2022-11-12T04:14:39;11.87;;;5.23;;
74487;SDS011;63019;51.080;13.642;2022-11-12T04:15:41;10.55;;;5.07;;
74487;SDS011;63019;51.080;13.642;2022-11-12T04:16:42;10.63;;;4.63;;
74487;SDS011;63019;51.080;13.642;2022-11-12T04:18:03;9.70;;;4.82;;
74487;SDS011;63019;51.080;13.642;2022-11-12T04:19:23;10.68;;;5.00;;
74487;SDS011;63019;51.080;13.642;2022-11-12T04:20:44;9.32;;;4.80;;
74487;SDS011;63019;51.080;13.642;2022-11-12T04:22:07;13.32;;;5.00;;
74487;SDS011;63019;51.080;13.642;2022-11-12T04:23:10;9.50;;;4.60;;
74487;SDS011;63019;51.080;13.642;2022-11-12T04:24:12;9.48;;;4.45;;
74487;SDS011;63019;51.080;13.642;2022-11-12T04:25:33;10.30;;;4.63;;
74487;SDS011;63019;51.080;13.642;2022-11-12T04:26:53;9.15;;;4.65;;
74487;SDS011;63019;51.080;13.642;2022-11-12T04:27:55;7.90;;;4.68;;
74487;SDS011;63019;51.080;13.642;2022-11-12T04:28:57;10.55;;;4.43;;
74487;SDS011;63019;51.080;13.642;2022-11-12T04:30:17;8.68;;;4.50;;
74487;SDS011;63019;51.080;13.642;2022-11-12T04:31:19;11.32;;;4.65;;
74487;SDS011;63019;51.080;13.642;2022-11-12T04:32:22;10.40;;;4.00;;
74487;SDS011;63019;51.080;13.642;2022-11-12T04:33:24;13.18;;;4.22;;
74487;SDS011;63019;51.080;13.642;2022-11-12T04:34:25;7.30;;;4.28;;
74487;SDS011;63019;51.080;13.642;2022-11-12T04:35:30;9.20;;;4.22;;
74487;SDS011;63019;51.080;13.642;2022-11-12T04:36:32;9.67;;;4.00;;
74487;SDS011;63019;51.080;13.642;2022-11-12T04:37:34;9.87;;;4.07;;
74487;SDS011;63019;51.080;13.642;2022-11-12T04:38:45;9.32;;;4.45;;
74487;SDS011;63019;51.080;13.642;2022-11-12T04:39:47;9.23;;;4.28;;
74487;SDS011;63019;51.080;13.642;2022-11-12T04:40:49;7.72;;;4.18;;
74487;SDS011;63019;51.080;13.642;2022-11-12T04:42:09;9.63;;;3.97;;
74487;SDS011;63019;51.080;13.642;2022-11-12T04:43:30;10.23;;;3.83;;
74487;SDS011;63019;51.080;13.642;2022-11-12T04:44:50;8.13;;;3.80;;
74487;SDS011;63019;51.080;13.642;2022-11-12T04:46:03;7.50;;;3.28;;
74487;SDS011;63019;51.080;13.642;2022-11-12T04:47:05;7.07;;;2.97;;
74487;SDS011;63019;51.080;13.642;2022-11-12T04:48:07;6.77;;;3.40;;
74487;SDS011;63019;51.080;13.642;2022-11-12T04:49:09;7.97;;;3.25;;
74487;SDS011;63019;51.080;13.642;2022-11-12T04:50:14;7.47;;;3.10;;
74487;SDS011;63019;51.080;13.642;2022-11-12T04:51:18;11.90;;;3.50;;
74487;SDS011;63019;51.080;13.642;2022-11-12T04:52:38;17.25;;;3.58;;
74487;SDS011;63019;51.080;13.642;2022-11-12T04:53:40;8.02;;;3.10;;
74487;SDS011;63019;51.080;13.642;2022-11-12T04:54:42;5.88;;;3.30;;
74487;SDS011;63019;51.080;13.642;2022-11-12T04:55:44;7.50;;;3.33;;
74487;SDS011;63019;51.080;13.642;2022-11-12T04:56:49;8.80;;;3.30;;
74487;SDS011;63019;51.080;13.642;2022-11-12T04:57:51;8.50;;;3.20;;
74487;SDS011;63019;51.080;13.642;2022-11-12T04:59:00;6.30;;;3.10;;
74487;SDS011;63019;51.080;13.642;2022-11-12T05:00:03;5.43;;;2.70;;
74487;SDS011;63019;51.080;13.642;2022-11-12T05:01:05;7.20;;;3.00;;
74487;SDS011;63019;51.080;13.642;2022-11-12T05:02:07;6.95;;;2.85;;
74487;SDS011;63019;51.080;13.642;2022-11-12T05:03:09;12.23;;;3.17;;
74487;SDS011;63019;51.080;13.642;2022-11-12T05:04:11;5.45;;;2.80;;
74487;SDS011;63019;51.080;13.642;2022-11-12T05:05:13;8.40;;;3.03;;
74487;SDS011;63019;51.080;13.642;2022-11-12T05:06:15;9.07;;;3.33;;
74487;SDS011;63019;51.080;13.642;2022-11-12T05:07:36;6.93;;;3.33;;
74487;SDS011;63019;51.080;13.642;2022-11-12T05:08:37;7.63;;;3.42;;
74487;SDS011;63019;51.080;13.642;2022-11-12T05:09:39;7.30;;;3.10;;
74487;SDS011;63019;51.080;13.642;2022-11-12T05:10:42;5.93;;;3.50;;
74487;SDS011;63019;51.080;13.642;2022-11-12T05:11:44;8.80;;;3.70;;
74487;SDS011;63019;51.080;13.642;2022-11-12T05:12:46;5.07;;;3.00;;
74487;SDS011;63019;51.080;13.642;2022-11-12T05:13:48;6.10;;;3.20;;
74487;SDS011;63019;51.080;13.642;2022-11-12T05:14:50;8.07;;;3.17;;
74487;SDS011;63019;51.080;13.642;2022-11-12T05:15:51;7.07;;;3.20;;
74487;SDS011;63019;51.080;13.642;2022-11-12T05:16:53;5.68;;;2.88;;
74487;SDS011;63019;51.080;13.642;2022-11-12T05:17:55;7.70;;;3.20;;
74487;SDS011;63019;51.080;13.642;2022-11-12T05:18:57;6.07;;;2.78;;
74487;SDS011;63019;51.080;13.642;2022-11-12T05:19:59;5.77;;;2.90;;
74487;SDS011;63019;51.080;13.642;2022-11-12T05:21:01;7.45;;;2.75;;
74487;SDS011;63019;51.080;13.642;2022-11-12T05:22:22;6.43;;;2.75;;
74487;SDS011;63019;51.080;13.642;2022-11-12T05:23:44;12.43;;;2.70;;
74487;SDS011;63019;51.080;13.642;2022-11-12T05:24:46;6.63;;;3.00;;
74487;SDS011;63019;51.080;13.642;2022-11-12T05:25:47;8.68;;;3.40;;
74487;SDS011;63019;51.080;13.642;2022-11-12T05:26:49;7.65;;;2.83;;
74487;SDS011;63019;51.080;13.642;2022-11-12T05:27:51;5.15;;;2.83;;
74487;SDS011;63019;51.080;13.642;2022-11-12T05:28:53;5.30;;;2.60;;
74487;SDS011;63019;51.080;13.642;2022-11-12T05:29:55;9.27;;;3.15;;
74487;SDS011;63019;51.080;13.642;2022-11-12T05:30:57;6.00;;;2.93;;
74487;SDS011;63019;51.080;13.642;2022-11-12T05:31:58;5.35;;;3.05;;
74487;SDS011;63019;51.080;13.642;2022-11-12T05:33:01;7.28;;;3.80;;
74487;SDS011;63019;51.080;13.642;2022-11-12T05:34:03;8.15;;;2.83;;
74487;SDS011;63019;51.080;13.642;2022-11-12T05:35:04;6.68;;;3.10;;
74487;SDS011;63019;51.080;13.642;2022-11-12T05:36:07;7.22;;;3.10;;
74487;SDS011;63019;51.080;13.642;2022-11-12T05:37:09;8.13;;;3.45;;
74487;SDS011;63019;51.080;13.642;2022-11-12T05:38:12;9.30;;;3.50;;
74487;SDS011;63019;51.080;13.642;2022-11-12T05:39:14;6.35;;;3.00;;
74487;SDS011;63019;51.080;13.642;2022-11-12T05:40:16;6.25;;;3.17;;
74487;SDS011;63019;51.080;13.642;2022-11-12T05:41:17;6.67;;;3.07;;
74487;SDS011;63019;51.080;13.642;2022-11-12T05:42:20;7.22;;;3.40;;
74487;SDS011;63019;51.080;13.642;2022-11-12T05:43:22;8.68;;;3.20;;
74487;SDS011;63019;51.080;13.642;2022-11-12T05:44:24;6.85;;;3.20;;
74487;SDS011;63019;51.080;13.642;2022-11-12T05:45:25;7.95;;;3.20;;
74487;SDS011;63019;51.080;13.642;2022-11-12T05:46:27;8.20;;;3.72;;
74487;SDS011;63019;51.080;13.642;2022-11-12T05:47:29;5.03;;;3.03;;
74487;SDS011;63019;51.080;13.642;2022-11-12T05:48:31;8.52;;;3.72;;
74487;SDS011;63019;51.080;13.642;2022-11-12T05:49:32;6.47;;;3.08;;
74487;SDS011;63019;51.080;13.642;2022-11-12T05:50:34;5.38;;;3.10;;
74487;SDS011;63019;51.080;13.642;2022-11-12T05:51:56;6.13;;;2.80;;
74487;SDS011;63019;51.080;13.642;2022-11-12T05:52:58;10.77;;;3.60;;
74487;SDS011;63019;51.080;13.642;2022-11-12T05:54:00;6.57;;;3.20;;
74487;SDS011;63019;51.080;13.642;2022-11-12T05:55:02;9.07;;;3.50;;
74487;SDS011;63019;51.080;13.642;2022-11-12T05:56:04;8.95;;;3.20;;
74487;SDS011;63019;51.080;13.642;2022-11-12T05:57:07;7.40;;;3.20;;
74487;SDS011;63019;51.080;13.642;2022-11-12T05:58:09;8.68;;;3.03;;
74487;SDS011;63019;51.080;13.642;2022-11-12T05:59:11;6.38;;;3.50;;
74487;SDS011;63019;51.080;13.642;2022-11-12T06:00:14;6.90;;;2.85;;
74487;SDS011;63019;51.080;13.642;2022-11-12T06:01:17;8.93;;;2.90;;
74487;SDS011;63019;51.080;13.642;2022-11-12T06:02:19;6.33;;;3.03;;
74487;SDS011;63019;51.080;13.642;2022-11-12T06:03:20;8.18;;;3.45;;
74487;SDS011;63019;51.080;13.642;2022-11-12T06:04:22;11.48;;;3.45;;
74487;SDS011;63019;51.080;13.642;2022-11-12T06:05:24;7.68;;;3.30;;
74487;SDS011;63019;51.080;13.642;2022-11-12T06:06:26;7.97;;;3.55;;
74487;SDS011;63019;51.080;13.642;2022-11-12T06:07:28;7.95;;;3.83;;
74487;SDS011;63019;51.080;13.642;2022-11-12T06:08:30;8.73;;;3.97;;
74487;SDS011;63019;51.080;13.642;2022-11-12T06:09:31;7.65;;;3.80;;
74487;SDS011;63019;51.080;13.642;2022-11-12T06:10:33;7.47;;;3.25;;
74487;SDS011;63019;51.080;13.642;2022-11-12T06:11:36;8.68;;;3.22;;
74487;SDS011;63019;51.080;13.642;2022-11-12T06:12:38;9.87;;;3.83;;
74487;SDS011;63019;51.080;13.642;2022-11-12T06:13:40;5.75;;;3.13;;
74487;SDS011;63019;51.080;13.642;2022-11-12T06:14:42;9.13;;;3.50;;
74487;SDS011;63019;51.080;13.642;2022-11-12T06:15:44;7.55;;;3.53;;
74487;SDS011;63019;51.080;13.642;2022-11-12T06:16:45;8.43;;;3.65;;
74487;SDS011;63019;51.080;13.642;2022-11-12T06:17:47;8.98;;;4.00;;
74487;SDS011;63019;51.080;13.642;2022-11-12T06:18:49;7.63;;;3.67;;